sensor_id;sensor_type;location;lat;lon;timestamp;pressure;altitude;pressure_sealevel;temperature;humidity
39455;BME280;25155;41.890;23.446;2023-04-20T00:02:05;91516.53;;;5.37;70.70
39455;BME280;25155;41.890;23.446;2023-04-20T00:04:32;91518.88;;;5.34;70.81
39455;BME280;25155;41.890;23.446;2023-04-20T00:07:01;91519.91;;;5.22;71.77
39455;BME280;25155;41.890;23.446;2023-04-20T00:09:29;91515.47;;;5.07;72.98
39455;BME280;25155;41.890;23.446;2023-04-20T00:11:57;91514.94;;;5.05;72.71
39455;BME280;25155;41.890;23.446;2023-04-20T00:14:25;91507.94;;;5.11;72.77
39455;BME280;25155;41.890;23.446;2023-04-20T00:16:52;91511.06;;;5.18;72.56
39455;BME280;25155;41.890;23.446;2023-04-20T00:19:19;91500.69;;;5.18;72.44
39455;BME280;25155;41.890;23.446;2023-04-20T00:21:46;91509.50;;;5.27;72.22
39455;BME280;25155;41.890;23.446;2023-04-20T00:24:14;91506.13;;;5.32;72.20
39455;BME280;25155;41.890;23.446;2023-04-20T00:26:41;91513.69;;;5.34;72.18
39455;BME280;25155;41.890;23.446;2023-04-20T00:29:10;91503.28;;;5.34;72.07
39455;BME280;25155;41.890;23.446;2023-04-20T00:31:37;91493.94;;;5.38;71.54
39455;BME280;25155;41.890;23.446;2023-04-20T00:34:04;91488.25;;;5.41;71.94
39455;BME280;25155;41.890;23.446;2023-04-20T00:36:31;91491.38;;;5.43;71.23
39455;BME280;25155;41.890;23.446;2023-04-20T00:38:58;91494.22;;;5.46;71.20
39455;BME280;25155;41.890;23.446;2023-04-20T00:41:25;91497.06;;;5.40;71.59
39455;BME280;25155;41.890;23.446;2023-04-20T00:43:53;91491.81;;;5.14;71.43
39455;BME280;25155;41.890;23.446;2023-04-20T00:46:22;91492.59;;;4.99;72.19
39455;BME280;25155;41.890;23.446;2023-04-20T00:48:49;91493.38;;;5.00;71.85
39455;BME280;25155;41.890;23.446;2023-04-20T00:51:18;91495.72;;;5.01;72.04
39455;BME280;25155;41.890;23.446;2023-04-20T00:53:45;91486.88;;;5.02;71.70
39455;BME280;25155;41.890;23.446;2023-04-20T00:56:13;91480.91;;;5.02;71.93
39455;BME280;25155;41.890;23.446;2023-04-20T00:58:41;91479.88;;;5.03;71.50
39455;BME280;25155;41.890;23.446;2023-04-20T01:01:09;91490.53;;;5.01;71.93
39455;BME280;25155;41.890;23.446;2023-04-20T01:03:38;91483.75;;;5.00;71.61
39455;BME280;25155;41.890;23.446;2023-04-20T01:06:06;91484.81;;;5.04;71.92
39455;BME280;25155;41.890;23.446;2023-04-20T01:08:34;91480.91;;;5.07;71.87
39455;BME280;25155;41.890;23.446;2023-04-20T01:11:01;91483.00;;;5.10;71.85
39455;BME280;25155;41.890;23.446;2023-04-20T01:13:28;91479.91;;;5.08;71.42
39455;BME280;25155;41.890;23.446;2023-04-20T01:15:57;91485.09;;;5.03;71.96
39455;BME280;25155;41.890;23.446;2023-04-20T01:18:24;91481.44;;;5.04;71.64
39455;BME280;25155;41.890;23.446;2023-04-20T01:20:53;91468.94;;;4.95;71.71
39455;BME280;25155;41.890;23.446;2023-04-20T01:23:22;91477.28;;;5.03;71.87
39455;BME280;25155;41.890;23.446;2023-04-20T01:25:49;91476.50;;;5.02;71.68
39455;BME280;25155;41.890;23.446;2023-04-20T01:28:16;91472.59;;;5.00;72.00
39455;BME280;25155;41.890;23.446;2023-04-20T01:30:43;91475.72;;;5.02;72.46
39455;BME280;25155;41.890;23.446;2023-04-20T01:33:10;91472.09;;;5.03;71.96
39455;BME280;25155;41.890;23.446;2023-04-20T01:35:40;91463.75;;;4.95;71.86
39455;BME280;25155;41.890;23.446;2023-04-20T01:38:08;91472.09;;;5.03;72.48
39455;BME280;25155;41.890;23.446;2023-04-20T01:40:38;91471.81;;;4.94;73.13
39455;BME280;25155;41.890;23.446;2023-04-20T01:43:05;91468.66;;;4.71;75.36
39455;BME280;25155;41.890;23.446;2023-04-20T01:45:32;91467.59;;;4.62;75.34
39455;BME280;25155;41.890;23.446;2023-04-20T01:48:00;91460.81;;;4.61;75.74
39455;BME280;25155;41.890;23.446;2023-04-20T01:50:27;91460.31;;;4.64;76.18
39455;BME280;25155;41.890;23.446;2023-04-20T01:52:54;91451.78;;;4.69;75.60
39455;BME280;25155;41.890;23.446;2023-04-20T01:55:21;91454.38;;;4.74;75.10
39455;BME280;25155;41.890;23.446;2023-04-20T01:57:49;91454.63;;;4.78;75.10
39455;BME280;25155;41.890;23.446;2023-04-20T02:00:17;91455.19;;;4.80;74.53
39455;BME280;25155;41.890;23.446;2023-04-20T02:02:44;91458.03;;;4.88;74.31
39455;BME280;25155;41.890;23.446;2023-04-20T02:05:11;91451.81;;;4.89;74.00
39455;BME280;25155;41.890;23.446;2023-04-20T02:07:38;91450.75;;;4.85;72.97
39455;BME280;25155;41.890;23.446;2023-04-20T02:10:06;91447.91;;;4.82;72.83
39455;BME280;25155;41.890;23.446;2023-04-20T02:12:33;91453.34;;;4.80;72.52
39455;BME280;25155;41.890;23.446;2023-04-20T02:15:02;91445.56;;;4.75;72.43
39455;BME280;25155;41.890;23.446;2023-04-20T02:17:30;91443.72;;;4.70;72.27
39455;BME280;25155;41.890;23.446;2023-04-20T02:19:58;91445.81;;;4.68;72.28
39455;BME280;25155;41.890;23.446;2023-04-20T02:22:25;91450.47;;;4.66;72.69
39455;BME280;25155;41.890;23.446;2023-04-20T02:24:52;91453.03;;;4.61;72.60
39455;BME280;25155;41.890;23.446;2023-04-20T02:27:19;91443.72;;;4.60;72.53
39455;BME280;25155;41.890;23.446;2023-04-20T02:29:46;91449.66;;;4.61;72.74
39455;BME280;25155;41.890;23.446;2023-04-20T02:32:15;91452.00;;;4.62;72.92
39455;BME280;25155;41.890;23.446;2023-04-20T02:34:42;91448.66;;;4.67;73.01
39455;BME280;25155;41.890;23.446;2023-04-20T02:37:09;91449.16;;;4.69;72.66
39455;BME280;25155;41.890;23.446;2023-04-20T02:39:36;91449.94;;;4.69;72.86
39455;BME280;25155;41.890;23.446;2023-04-20T02:42:05;91443.72;;;4.65;73.03
39455;BME280;25155;41.890;23.446;2023-04-20T02:44:32;91448.06;;;4.49;73.99
39455;BME280;25155;41.890;23.446;2023-04-20T02:46:59;91452.72;;;4.37;73.84
39455;BME280;25155;41.890;23.446;2023-04-20T02:49:27;91450.63;;;4.29;74.48
39455;BME280;25155;41.890;23.446;2023-04-20T02:51:54;91453.22;;;4.29;74.53
39455;BME280;25155;41.890;23.446;2023-04-20T02:54:21;91447.53;;;4.32;74.06
39455;BME280;25155;41.890;23.446;2023-04-20T02:56:49;91447.53;;;4.37;73.97
39455;BME280;25155;41.890;23.446;2023-04-20T02:59:16;91453.75;;;4.41;73.88
39455;BME280;25155;41.890;23.446;2023-04-20T03:01:43;91455.34;;;4.47;74.10
39455;BME280;25155;41.890;23.446;2023-04-20T03:04:10;91455.63;;;4.51;73.69
39455;BME280;25155;41.890;23.446;2023-04-20T03:06:39;91457.94;;;4.52;73.81
39455;BME280;25155;41.890;23.446;2023-04-20T03:09:07;91457.41;;;4.45;74.80
39455;BME280;25155;41.890;23.446;2023-04-20T03:11:34;91454.75;;;4.25;75.52
39455;BME280;25155;41.890;23.446;2023-04-20T03:14:01;91455.78;;;4.24;75.71
39455;BME280;25155;41.890;23.446;2023-04-20T03:16:28;91461.75;;;4.29;75.59
39455;BME280;25155;41.890;23.446;2023-04-20T03:18:55;91466.72;;;4.36;75.41
39455;BME280;25155;41.890;23.446;2023-04-20T03:21:22;91466.47;;;4.43;75.11
39455;BME280;25155;41.890;23.446;2023-04-20T03:23:51;91463.91;;;4.48;74.94
39455;BME280;25155;41.890;23.446;2023-04-20T03:26:18;91459.25;;;4.50;75.19
39455;BME280;25155;41.890;23.446;2023-04-20T03:28:45;91473.03;;;4.55;75.12
39455;BME280;25155;41.890;23.446;2023-04-20T03:31:12;91468.09;;;4.59;74.74
39455;BME280;25155;41.890;23.446;2023-04-20T03:33:39;91465.75;;;4.63;75.15
39455;BME280;25155;41.890;23.446;2023-04-20T03:36:06;91475.38;;;4.67;74.52
39455;BME280;25155;41.890;23.446;2023-04-20T03:38:34;91476.69;;;4.70;74.59
39455;BME280;25155;41.890;23.446;2023-04-20T03:41:02;91470.47;;;4.71;74.29
39455;BME280;25155;41.890;23.446;2023-04-20T03:43:29;91465.25;;;4.71;73.92
39455;BME280;25155;41.890;23.446;2023-04-20T03:45:56;91472.03;;;4.77;74.28
39455;BME280;25155;41.890;23.446;2023-04-20T03:48:24;91473.34;;;4.80;73.55
39455;BME280;25155;41.890;23.446;2023-04-20T03:50:51;91466.59;;;4.79;73.52
39455;BME280;25155;41.890;23.446;2023-04-20T03:53:18;91472.03;;;4.77;73.31
39455;BME280;25155;41.890;23.446;2023-04-20T03:55:45;91473.59;;;4.73;73.04
39455;BME280;25155;41.890;23.446;2023-04-20T03:58:13;91472.53;;;4.69;73.15
39455;BME280;25155;41.890;23.446;2023-04-20T04:00:41;91474.63;;;4.67;73.71
39455;BME280;25155;41.890;23.446;2023-04-20T04:03:08;91482.91;;;4.64;73.91
39455;BME280;25155;41.890;23.446;2023-04-20T04:05:35;91484.41;;;4.49;74.30
39455;BME280;25155;41.890;23.446;2023-04-20T04:08:02;91481.53;;;4.41;75.38
39455;BME280;25155;41.890;23.446;2023-04-20T04:10:29;91479.16;;;4.29;75.66
39455;BME280;25155;41.890;23.446;2023-04-20T04:12:56;91484.84;;;4.26;75.45
39455;BME280;25155;41.890;23.446;2023-04-20T04:15:25;91478.53;;;4.11;76.55
39455;BME280;25155;41.890;23.446;2023-04-20T04:17:52;91476.69;;;4.01;77.38
39455;BME280;25155;41.890;23.446;2023-04-20T04:20:20;91482.63;;;3.97;78.08
39455;BME280;25155;41.890;23.446;2023-04-20T04:22:47;91483.69;;;4.01;77.74
39455;BME280;25155;41.890;23.446;2023-04-20T04:25:14;91485.81;;;4.09;77.62
39455;BME280;25155;41.890;23.446;2023-04-20T04:27:41;91477.53;;;4.12;77.28
39455;BME280;25155;41.890;23.446;2023-04-20T04:30:12;91474.69;;;4.19;77.58
39455;BME280;25155;41.890;23.446;2023-04-20T04:32:41;91478.09;;;4.25;77.24
39455;BME280;25155;41.890;23.446;2023-04-20T04:35:09;91469.81;;;4.33;77.16
39455;BME280;25155;41.890;23.446;2023-04-20T04:37:36;91469.84;;;4.38;76.61
39455;BME280;25155;41.890;23.446;2023-04-20T04:40:04;91475.84;;;4.44;76.36
39455;BME280;25155;41.890;23.446;2023-04-20T04:42:33;91472.50;;;4.48;76.47
39455;BME280;25155;41.890;23.446;2023-04-20T04:45:00;91472.25;;;4.55;75.94
39455;BME280;25155;41.890;23.446;2023-04-20T04:47:33;91476.13;;;4.57;75.96
39455;BME280;25155;41.890;23.446;2023-04-20T04:50:01;91466.56;;;4.63;75.71
39455;BME280;25155;41.890;23.446;2023-04-20T04:52:31;91470.47;;;4.71;75.91
39455;BME280;25155;41.890;23.446;2023-04-20T04:54:58;91472.53;;;4.74;75.67
39455;BME280;25155;41.890;23.446;2023-04-20T04:57:25;91474.13;;;4.80;76.00
39455;BME280;25155;41.890;23.446;2023-04-20T04:59:52;91475.69;;;4.86;75.67
39455;BME280;25155;41.890;23.446;2023-04-20T05:02:19;91475.47;;;4.93;75.24
39455;BME280;25155;41.890;23.446;2023-04-20T05:04:46;91477.81;;;5.00;75.64
39455;BME280;25155;41.890;23.446;2023-04-20T05:07:15;91477.81;;;5.05;75.82
39455;BME280;25155;41.890;23.446;2023-04-20T05:09:43;91479.91;;;5.08;76.55
39455;BME280;25155;41.890;23.446;2023-04-20T05:12:10;91473.13;;;5.07;76.45
39455;BME280;25155;41.890;23.446;2023-04-20T05:14:37;91474.69;;;5.08;76.61
39455;BME280;25155;41.890;23.446;2023-04-20T05:17:04;91475.72;;;5.07;77.16
39455;BME280;25155;41.890;23.446;2023-04-20T05:19:31;91478.06;;;5.13;77.11
39455;BME280;25155;41.890;23.446;2023-04-20T05:21:58;91476.78;;;5.21;77.31
39455;BME280;25155;41.890;23.446;2023-04-20T05:24:27;91476.78;;;5.21;77.44
39455;BME280;25155;41.890;23.446;2023-04-20T05:26:54;91473.69;;;5.24;77.26
39455;BME280;25155;41.890;23.446;2023-04-20T05:29:21;91473.38;;;5.21;76.37
39455;BME280;25155;41.890;23.446;2023-04-20T05:31:48;91474.69;;;5.23;77.27
39455;BME280;25155;41.890;23.446;2023-04-20T05:34:15;91491.06;;;5.29;76.29
39455;BME280;25155;41.890;23.446;2023-04-20T05:36:42;91482.75;;;5.37;76.29
39455;BME280;25155;41.890;23.446;2023-04-20T05:39:09;91496.56;;;5.43;76.01
39455;BME280;25155;41.890;23.446;2023-04-20T05:41:37;91485.13;;;5.44;75.92
39455;BME280;25155;41.890;23.446;2023-04-20T05:44:05;91490.34;;;5.49;76.07
39455;BME280;25155;41.890;23.446;2023-04-20T05:46:32;91491.38;;;5.53;76.15
39455;BME280;25155;41.890;23.446;2023-04-20T05:48:59;91490.59;;;5.58;76.61
39455;BME280;25155;41.890;23.446;2023-04-20T05:51:26;91491.63;;;5.62;76.59
39455;BME280;25155;41.890;23.446;2023-04-20T05:53:58;91479.66;;;5.66;76.72
39455;BME280;25155;41.890;23.446;2023-04-20T05:56:25;91485.38;;;5.68;76.47
39455;BME280;25155;41.890;23.446;2023-04-20T05:58:53;91481.50;;;5.71;76.11
39455;BME280;25155;41.890;23.446;2023-04-20T06:01:21;91474.47;;;5.76;76.01
39455;BME280;25155;41.890;23.446;2023-04-20T06:03:48;91493.41;;;5.82;74.61
39455;BME280;25155;41.890;23.446;2023-04-20T06:06:15;91489.28;;;5.76;74.91
39455;BME280;25155;41.890;23.446;2023-04-20T06:08:42;91478.88;;;5.76;75.54
39455;BME280;25155;41.890;23.446;2023-04-20T06:11:09;91487.44;;;5.81;75.31
39455;BME280;25155;41.890;23.446;2023-04-20T06:13:36;91495.00;;;5.78;76.33
39455;BME280;25155;41.890;23.446;2023-04-20T06:16:05;91489.56;;;5.69;76.44
39455;BME280;25155;41.890;23.446;2023-04-20T06:18:54;91495.78;;;5.63;76.79
39455;BME280;25155;41.890;23.446;2023-04-20T06:21:21;91489.56;;;5.69;76.49
39455;BME280;25155;41.890;23.446;2023-04-20T06:23:49;91490.84;;;5.72;76.74
39455;BME280;25155;41.890;23.446;2023-04-20T06:26:16;91490.06;;;5.76;77.15
39455;BME280;25155;41.890;23.446;2023-04-20T06:28:43;91493.16;;;5.78;76.39
39455;BME280;25155;41.890;23.446;2023-04-20T06:31:14;91482.00;;;5.78;74.15
39455;BME280;25155;41.890;23.446;2023-04-20T06:33:41;91486.16;;;5.89;73.41
39455;BME280;25155;41.890;23.446;2023-04-20T06:36:08;91489.75;;;5.98;72.83
39455;BME280;25155;41.890;23.446;2023-04-20T06:38:36;91488.69;;;6.10;73.29
39455;BME280;25155;41.890;23.446;2023-04-20T06:41:03;91482.72;;;6.09;72.76
39455;BME280;25155;41.890;23.446;2023-04-20T06:43:30;91484.25;;;6.10;70.44
39455;BME280;25155;41.890;23.446;2023-04-20T06:45:57;91497.53;;;6.19;71.39
39455;BME280;25155;41.890;23.446;2023-04-20T06:48:26;91505.31;;;6.29;71.97
39455;BME280;25155;41.890;23.446;2023-04-20T06:50:53;91500.31;;;6.43;73.01
39455;BME280;25155;41.890;23.446;2023-04-20T06:53:20;91505.22;;;6.55;72.48
39455;BME280;25155;41.890;23.446;2023-04-20T06:55:47;91496.31;;;6.66;72.50
39455;BME280;25155;41.890;23.446;2023-04-20T06:58:14;91509.31;;;6.76;72.57
39455;BME280;25155;41.890;23.446;2023-04-20T07:00:41;91509.75;;;6.89;71.79
39455;BME280;25155;41.890;23.446;2023-04-20T07:03:08;91504.06;;;6.82;69.35
39455;BME280;25155;41.890;23.446;2023-04-20T07:05:37;91504.88;;;6.77;69.31
39455;BME280;25155;41.890;23.446;2023-04-20T07:08:04;91508.75;;;6.79;68.10
39455;BME280;25155;41.890;23.446;2023-04-20T07:10:31;91499.41;;;6.78;68.13
39455;BME280;25155;41.890;23.446;2023-04-20T07:12:59;91510.03;;;6.87;68.51
39455;BME280;25155;41.890;23.446;2023-04-20T07:15:26;91507.09;;;6.99;67.76
39455;BME280;25155;41.890;23.446;2023-04-20T07:17:53;91508.66;;;7.00;68.63
39455;BME280;25155;41.890;23.446;2023-04-20T07:20:20;91512.81;;;7.01;65.28
39455;BME280;25155;41.890;23.446;2023-04-20T07:22:48;91501.31;;;7.07;69.35
39455;BME280;25155;41.890;23.446;2023-04-20T07:25:16;91500.44;;;7.22;68.29
39455;BME280;25155;41.890;23.446;2023-04-20T07:27:43;91507.13;;;7.44;67.45
39455;BME280;25155;41.890;23.446;2023-04-20T07:30:11;91501.19;;;7.73;68.02
39455;BME280;25155;41.890;23.446;2023-04-20T07:32:38;91508.56;;;7.95;63.71
39455;BME280;25155;41.890;23.446;2023-04-20T07:35:07;91498.50;;;8.07;64.53
39455;BME280;25155;41.890;23.446;2023-04-20T07:37:34;91500.38;;;8.31;66.52
39455;BME280;25155;41.890;23.446;2023-04-20T07:40:03;91505.31;;;8.56;66.42
39455;BME280;25155;41.890;23.446;2023-04-20T07:42:31;91503.47;;;8.81;65.01
39455;BME280;25155;41.890;23.446;2023-04-20T07:44:59;91494.13;;;8.99;64.66
39455;BME280;25155;41.890;23.446;2023-04-20T07:47:26;91495.69;;;9.00;61.37
39455;BME280;25155;41.890;23.446;2023-04-20T07:49:53;91498.44;;;9.09;62.38
39455;BME280;25155;41.890;23.446;2023-04-20T07:52:22;91499.59;;;9.22;62.48
39455;BME280;25155;41.890;23.446;2023-04-20T07:54:49;91495.25;;;9.31;59.62
39455;BME280;25155;41.890;23.446;2023-04-20T07:57:19;91499.16;;;9.33;58.19
39455;BME280;25155;41.890;23.446;2023-04-20T07:59:47;91490.03;;;9.31;57.62
39455;BME280;25155;41.890;23.446;2023-04-20T08:02:14;91498.06;;;9.34;59.43
39455;BME280;25155;41.890;23.446;2023-04-20T08:04:42;91485.44;;;9.23;56.30
39455;BME280;25155;41.890;23.446;2023-04-20T08:07:10;91490.88;;;9.07;57.17
39455;BME280;25155;41.890;23.446;2023-04-20T08:09:38;91481.41;;;8.92;56.68
39455;BME280;25155;41.890;23.446;2023-04-20T08:12:06;91473.22;;;8.99;57.33
39455;BME280;25155;41.890;23.446;2023-04-20T08:14:35;91479.66;;;9.07;57.39
39455;BME280;25155;41.890;23.446;2023-04-20T08:17:02;91483.19;;;9.16;55.71
39455;BME280;25155;41.890;23.446;2023-04-20T08:19:30;91474.69;;;9.24;57.11
39455;BME280;25155;41.890;23.446;2023-04-20T08:21:57;91464.09;;;9.34;56.69
39455;BME280;25155;41.890;23.446;2023-04-20T08:24:24;91464.31;;;9.38;55.78
39455;BME280;25155;41.890;23.446;2023-04-20T08:26:51;91467.06;;;9.47;56.01
39455;BME280;25155;41.890;23.446;2023-04-20T08:29:18;91466.06;;;9.43;54.56
39455;BME280;25155;41.890;23.446;2023-04-20T08:31:47;91467.28;;;9.31;54.38
39455;BME280;25155;41.890;23.446;2023-04-20T08:34:14;91459.28;;;9.23;54.62
39455;BME280;25155;41.890;23.446;2023-04-20T08:36:41;91453.00;;;9.24;55.87
39455;BME280;25155;41.890;23.446;2023-04-20T08:39:10;91463.75;;;9.22;54.83
39455;BME280;25155;41.890;23.446;2023-04-20T08:41:38;91458.84;;;9.34;58.50
39455;BME280;25155;41.890;23.446;2023-04-20T08:44:06;91454.19;;;9.50;56.59
39455;BME280;25155;41.890;23.446;2023-04-20T08:46:34;91458.16;;;9.48;54.78
39455;BME280;25155;41.890;23.446;2023-04-20T08:49:03;91473.63;;;9.44;53.29
39455;BME280;25155;41.890;23.446;2023-04-20T08:51:30;91457.53;;;9.37;55.94
39455;BME280;25155;41.890;23.446;2023-04-20T08:54:02;91466.13;;;9.37;56.79
39455;BME280;25155;41.890;23.446;2023-04-20T08:56:34;91457.13;;;9.30;55.81
39455;BME280;25155;41.890;23.446;2023-04-20T08:59:02;91462.34;;;9.30;54.84
39455;BME280;25155;41.890;23.446;2023-04-20T09:01:30;91472.00;;;9.29;54.76
39455;BME280;25155;41.890;23.446;2023-04-20T09:03:58;91463.09;;;9.30;54.56
39455;BME280;25155;41.890;23.446;2023-04-20T09:06:27;91471.44;;;9.32;54.17
39455;BME280;25155;41.890;23.446;2023-04-20T09:08:54;91466.00;;;9.29;54.54
39455;BME280;25155;41.890;23.446;2023-04-20T09:11:22;91468.22;;;9.22;53.79
39455;BME280;25155;41.890;23.446;2023-04-20T09:14:01;91478.38;;;9.23;53.50
39455;BME280;25155;41.890;23.446;2023-04-20T09:16:29;91476.06;;;9.22;54.13
39455;BME280;25155;41.890;23.446;2023-04-20T09:18:57;91474.06;;;9.13;54.44
39455;BME280;25155;41.890;23.446;2023-04-20T09:21:27;91478.66;;;9.03;54.62
39455;BME280;25155;41.890;23.446;2023-04-20T09:23:56;91473.97;;;8.99;54.42
39455;BME280;25155;41.890;23.446;2023-04-20T09:26:23;91466.88;;;9.05;54.96
39455;BME280;25155;41.890;23.446;2023-04-20T09:28:50;91470.75;;;9.08;54.85
39455;BME280;25155;41.890;23.446;2023-04-20T09:31:17;91469.13;;;9.12;54.38
39455;BME280;25155;41.890;23.446;2023-04-20T09:33:53;91463.41;;;9.10;55.69
39455;BME280;25155;41.890;23.446;2023-04-20T09:36:21;91463.91;;;9.12;56.77
39455;BME280;25155;41.890;23.446;2023-04-20T09:39:00;91456.47;;;9.38;56.54
39455;BME280;25155;41.890;23.446;2023-04-20T09:41:28;91453.72;;;9.62;55.87
39455;BME280;25155;41.890;23.446;2023-04-20T09:43:56;91453.56;;;9.72;54.54
39455;BME280;25155;41.890;23.446;2023-04-20T09:46:27;91453.06;;;9.70;52.56
39455;BME280;25155;41.890;23.446;2023-04-20T09:48:56;91439.03;;;9.66;51.69
39455;BME280;25155;41.890;23.446;2023-04-20T09:51:25;91452.31;;;9.70;52.09
39455;BME280;25155;41.890;23.446;2023-04-20T09:53:56;91450.53;;;9.65;52.48
39455;BME280;25155;41.890;23.446;2023-04-20T09:56:23;91439.41;;;9.60;52.88
39455;BME280;25155;41.890;23.446;2023-04-20T09:58:52;91445.00;;;9.53;54.49
39455;BME280;25155;41.890;23.446;2023-04-20T10:01:20;91448.78;;;9.61;54.12
39455;BME280;25155;41.890;23.446;2023-04-20T10:03:48;91444.66;;;9.73;52.71
39455;BME280;25155;41.890;23.446;2023-04-20T10:06:22;91440.06;;;9.65;51.66
39455;BME280;25155;41.890;23.446;2023-04-20T10:08:50;91436.06;;;9.54;52.12
39455;BME280;25155;41.890;23.446;2023-04-20T10:11:27;91435.94;;;9.45;51.51
39455;BME280;25155;41.890;23.446;2023-04-20T10:13:55;91443.03;;;9.45;51.29
39455;BME280;25155;41.890;23.446;2023-04-20T10:16:22;91442.22;;;9.44;51.04
39455;BME280;25155;41.890;23.446;2023-04-20T10:18:59;91437.56;;;9.41;50.24
39455;BME280;25155;41.890;23.446;2023-04-20T10:21:28;91444.72;;;9.35;50.15
39455;BME280;25155;41.890;23.446;2023-04-20T10:23:58;91446.78;;;9.39;50.88
39455;BME280;25155;41.890;23.446;2023-04-20T10:26:37;91437.38;;;9.37;51.87
39455;BME280;25155;41.890;23.446;2023-04-20T10:29:04;91444.13;;;9.58;50.99
39455;BME280;25155;41.890;23.446;2023-04-20T10:31:36;91437.16;;;9.53;49.15
39455;BME280;25155;41.890;23.446;2023-04-20T10:34:05;91435.31;;;9.53;51.12
39455;BME280;25155;41.890;23.446;2023-04-20T10:36:33;91442.28;;;9.58;50.38
39455;BME280;25155;41.890;23.446;2023-04-20T10:39:13;91445.00;;;9.53;49.74
39455;BME280;25155;41.890;23.446;2023-04-20T10:41:52;91436.69;;;9.65;49.80
39455;BME280;25155;41.890;23.446;2023-04-20T10:44:20;91433.78;;;9.66;49.16
39455;BME280;25155;41.890;23.446;2023-04-20T10:46:48;91438.94;;;9.71;50.55
39455;BME280;25155;41.890;23.446;2023-04-20T10:49:15;91438.03;;;9.62;50.65
39455;BME280;25155;41.890;23.446;2023-04-20T10:51:46;91446.38;;;9.64;50.65
39455;BME280;25155;41.890;23.446;2023-04-20T10:54:13;91457.25;;;9.71;50.16
39455;BME280;25155;41.890;23.446;2023-04-20T10:56:42;91445.94;;;9.76;50.74
39455;BME280;25155;41.890;23.446;2023-04-20T10:59:12;91435.97;;;9.92;51.84
39455;BME280;25155;41.890;23.446;2023-04-20T11:01:40;91443.56;;;10.07;50.79
39455;BME280;25155;41.890;23.446;2023-04-20T11:04:08;91429.59;;;9.98;49.61
39455;BME280;25155;41.890;23.446;2023-04-20T11:06:36;91436.44;;;9.94;50.33
39455;BME280;25155;41.890;23.446;2023-04-20T11:09:15;91439.66;;;10.05;49.60
39455;BME280;25155;41.890;23.446;2023-04-20T11:11:43;91424.81;;;10.00;48.99
39455;BME280;25155;41.890;23.446;2023-04-20T11:14:12;91435.59;;;9.99;50.44
39455;BME280;25155;41.890;23.446;2023-04-20T11:16:39;91429.19;;;10.05;50.00
39455;BME280;25155;41.890;23.446;2023-04-20T11:19:06;91427.47;;;10.28;51.93
39455;BME280;25155;41.890;23.446;2023-04-20T11:21:35;91416.44;;;10.59;49.91
39455;BME280;25155;41.890;23.446;2023-04-20T11:24:03;91416.09;;;10.74;50.72
39455;BME280;25155;41.890;23.446;2023-04-20T11:26:35;91418.31;;;10.81;50.92
39455;BME280;25155;41.890;23.446;2023-04-20T11:29:03;91420.66;;;10.82;49.42
39455;BME280;25155;41.890;23.446;2023-04-20T11:31:31;91415.31;;;10.88;49.44
39455;BME280;25155;41.890;23.446;2023-04-20T11:33:59;91413.44;;;10.88;48.37
39455;BME280;25155;41.890;23.446;2023-04-20T11:36:27;91421.25;;;10.79;48.93
39455;BME280;25155;41.890;23.446;2023-04-20T11:39:06;91419.91;;;10.68;48.15
39455;BME280;25155;41.890;23.446;2023-04-20T11:41:33;91417.09;;;10.64;48.75
39455;BME280;25155;41.890;23.446;2023-04-20T11:44:04;91410.78;;;10.65;48.44
39455;BME280;25155;41.890;23.446;2023-04-20T11:46:34;91410.56;;;10.62;47.29
39455;BME280;25155;41.890;23.446;2023-04-20T11:49:02;91412.44;;;10.75;47.82
39455;BME280;25155;41.890;23.446;2023-04-20T11:51:30;91417.84;;;10.65;47.27
39455;BME280;25155;41.890;23.446;2023-04-20T11:53:57;91414.28;;;10.61;47.84
39455;BME280;25155;41.890;23.446;2023-04-20T11:56:24;91415.63;;;10.58;47.63
39455;BME280;25155;41.890;23.446;2023-04-20T11:58:51;91411.88;;;10.51;47.95
39455;BME280;25155;41.890;23.446;2023-04-20T12:01:18;91423.78;;;10.29;48.68
39455;BME280;25155;41.890;23.446;2023-04-20T12:03:47;91414.44;;;10.09;48.34
39455;BME280;25155;41.890;23.446;2023-04-20T12:06:14;91406.91;;;10.07;49.35
39455;BME280;25155;41.890;23.446;2023-04-20T12:08:41;91413.69;;;10.08;49.28
39455;BME280;25155;41.890;23.446;2023-04-20T12:11:08;91408.53;;;10.03;49.42
39455;BME280;25155;41.890;23.446;2023-04-20T12:13:35;91408.84;;;10.02;49.30
39455;BME280;25155;41.890;23.446;2023-04-20T12:16:03;91396.50;;;10.02;49.49
39455;BME280;25155;41.890;23.446;2023-04-20T12:18:30;91401.47;;;10.18;50.27
39455;BME280;25155;41.890;23.446;2023-04-20T12:20:59;91405.91;;;10.17;50.12
39455;BME280;25155;41.890;23.446;2023-04-20T12:23:26;91414.09;;;10.16;49.60
39455;BME280;25155;41.890;23.446;2023-04-20T12:25:53;91406.91;;;10.21;51.24
39455;BME280;25155;41.890;23.446;2023-04-20T12:28:20;91412.34;;;10.11;50.90
39455;BME280;25155;41.890;23.446;2023-04-20T12:30:47;91409.53;;;10.07;51.94
39455;BME280;25155;41.890;23.446;2023-04-20T12:33:14;91413.09;;;10.11;52.30
39455;BME280;25155;41.890;23.446;2023-04-20T12:35:42;91412.91;;;10.22;50.95
39455;BME280;25155;41.890;23.446;2023-04-20T12:38:11;91412.03;;;10.26;50.45
39455;BME280;25155;41.890;23.446;2023-04-20T12:40:38;91408.84;;;10.29;50.45
39455;BME280;25155;41.890;23.446;2023-04-20T12:43:05;91404.00;;;10.37;50.00
39455;BME280;25155;41.890;23.446;2023-04-20T12:45:32;91402.47;;;10.36;49.97
39455;BME280;25155;41.890;23.446;2023-04-20T12:47:59;91397.81;;;10.33;49.48
39455;BME280;25155;41.890;23.446;2023-04-20T12:50:26;91393.44;;;10.42;49.42
39455;BME280;25155;41.890;23.446;2023-04-20T12:52:53;91392.78;;;10.36;47.57
39455;BME280;25155;41.890;23.446;2023-04-20T12:55:24;91388.09;;;10.33;47.89
39455;BME280;25155;41.890;23.446;2023-04-20T12:57:52;91381.88;;;10.29;49.31
39455;BME280;25155;41.890;23.446;2023-04-20T13:00:19;91379.38;;;10.38;48.60
39455;BME280;25155;41.890;23.446;2023-04-20T13:02:46;91379.19;;;10.34;47.28